sensor_id;sensor_type;location;lat;lon;timestamp;P1;durP1;ratioP1;P2;durP2;ratioP2
13386;SDS011;6763;48.524;9.044;2022-12-18T00:02:03;2.33;;;2.23;;
13386;SDS011;6763;48.524;9.044;2022-12-18T00:04:28;1.17;;;1.17;;
13386;SDS011;6763;48.524;9.044;2022-12-18T00:06:54;1.97;;;1.87;;
13386;SDS011;6763;48.524;9.044;2022-12-18T00:09:19;2.50;;;2.30;;
13386;SDS011;6763;48.524;9.044;2022-12-18T00:11:45;2.43;;;2.00;;
13386;SDS011;6763;48.524;9.044;2022-12-18T00:14:11;2.43;;;2.23;;
13386;SDS011;6763;48.524;9.044;2022-12-18T00:16:37;3.50;;;2.53;;
13386;SDS011;6763;48.524;9.044;2022-12-18T00:19:03;13.60;;;4.00;;
13386;SDS011;6763;48.524;9.044;2022-12-18T00:21:29;4.10;;;2.40;;
13386;SDS011;6763;48.524;9.044;2022-12-18T00:23:56;3.60;;;3.30;;
13386;SDS011;6763;48.524;9.044;2022-12-18T00:26:28;1.97;;;1.87;;
13386;SDS011;6763;48.524;9.044;2022-12-18T00:28:57;1.87;;;1.47;;
13386;SDS011;6763;48.524;9.044;2022-12-18T00:31:27;2.60;;;2.40;;
13386;SDS011;6763;48.524;9.044;2022-12-18T00:33:53;2.33;;;2.23;;
13386;SDS011;6763;48.524;9.044;2022-12-18T00:36:21;2.57;;;2.03;;
13386;SDS011;6763;48.524;9.044;2022-12-18T00:38:48;5.90;;;4.33;;
13386;SDS011;6763;48.524;9.044;2022-12-18T00:41:14;2.90;;;2.73;;
13386;SDS011;6763;48.524;9.044;2022-12-18T00:44:00;1.70;;;1.60;;
13386;SDS011;6763;48.524;9.044;2022-12-18T00:46:25;2.13;;;1.97;;
13386;SDS011;6763;48.524;9.044;2022-12-18T00:48:51;2.33;;;2.07;;
13386;SDS011;6763;48.524;9.044;2022-12-18T00:51:16;1.30;;;1.30;;
13386;SDS011;6763;48.524;9.044;2022-12-18T00:53:41;2.20;;;2.00;;
13386;SDS011;6763;48.524;9.044;2022-12-18T00:56:07;2.10;;;2.00;;
13386;SDS011;6763;48.524;9.044;2022-12-18T00:58:35;1.30;;;1.20;;
13386;SDS011;6763;48.524;9.044;2022-12-18T01:01:01;13.40;;;2.13;;
13386;SDS011;6763;48.524;9.044;2022-12-18T01:03:26;1.60;;;1.57;;
13386;SDS011;6763;48.524;9.044;2022-12-18T01:05:51;6.80;;;5.03;;
13386;SDS011;6763;48.524;9.044;2022-12-18T01:08:17;5.50;;;2.73;;
13386;SDS011;6763;48.524;9.044;2022-12-18T01:10:42;1.17;;;1.17;;
13386;SDS011;6763;48.524;9.044;2022-12-18T01:13:07;1.67;;;1.57;;
13386;SDS011;6763;48.524;9.044;2022-12-18T01:15:33;1.57;;;1.57;;
13386;SDS011;6763;48.524;9.044;2022-12-18T01:17:58;1.67;;;1.60;;
13386;SDS011;6763;48.524;9.044;2022-12-18T01:20:24;3.60;;;2.50;;
13386;SDS011;6763;48.524;9.044;2022-12-18T01:22:49;2.13;;;1.97;;
13386;SDS011;6763;48.524;9.044;2022-12-18T01:25:14;2.87;;;2.67;;
13386;SDS011;6763;48.524;9.044;2022-12-18T01:27:40;1.73;;;1.63;;
13386;SDS011;6763;48.524;9.044;2022-12-18T01:30:05;1.90;;;1.80;;
13386;SDS011;6763;48.524;9.044;2022-12-18T01:32:31;2.60;;;1.80;;
13386;SDS011;6763;48.524;9.044;2022-12-18T01:34:57;1.90;;;1.80;;
13386;SDS011;6763;48.524;9.044;2022-12-18T01:37:22;3.60;;;2.03;;
13386;SDS011;6763;48.524;9.044;2022-12-18T01:39:48;4.03;;;3.53;;
13386;SDS011;6763;48.524;9.044;2022-12-18T01:42:15;5.77;;;2.27;;
13386;SDS011;6763;48.524;9.044;2022-12-18T01:44:54;4.43;;;2.47;;
13386;SDS011;6763;48.524;9.044;2022-12-18T01:47:22;2.17;;;1.97;;
13386;SDS011;6763;48.524;9.044;2022-12-18T01:49:49;4.83;;;2.20;;
13386;SDS011;6763;48.524;9.044;2022-12-18T01:52:15;4.03;;;2.67;;
13386;SDS011;6763;48.524;9.044;2022-12-18T01:54:41;2.93;;;2.63;;
13386;SDS011;6763;48.524;9.044;2022-12-18T01:57:07;1.33;;;1.33;;
13386;SDS011;6763;48.524;9.044;2022-12-18T01:59:33;1.60;;;1.50;;
13386;SDS011;6763;48.524;9.044;2022-12-18T02:01:59;2.10;;;2.00;;
13386;SDS011;6763;48.524;9.044;2022-12-18T02:04:26;3.33;;;3.13;;
13386;SDS011;6763;48.524;9.044;2022-12-18T02:07:04;4.53;;;3.07;;
13386;SDS011;6763;48.524;9.044;2022-12-18T02:09:34;2.53;;;2.40;;
13386;SDS011;6763;48.524;9.044;2022-12-18T02:12:19;3.70;;;1.90;;
13386;SDS011;6763;48.524;9.044;2022-12-18T02:15:02;2.43;;;2.10;;
13386;SDS011;6763;48.524;9.044;2022-12-18T02:25:57;6.70;;;3.20;;
13386;SDS011;6763;48.524;9.044;2022-12-18T02:28:46;3.70;;;3.37;;
13386;SDS011;6763;48.524;9.044;2022-12-18T02:31:19;4.57;;;4.20;;
13386;SDS011;6763;48.524;9.044;2022-12-18T02:33:53;2.80;;;2.60;;
13386;SDS011;6763;48.524;9.044;2022-12-18T02:36:25;2.13;;;2.03;;
13386;SDS011;6763;48.524;9.044;2022-12-18T02:38:53;1.90;;;1.80;;
13386;SDS011;6763;48.524;9.044;2022-12-18T02:41:23;2.13;;;2.03;;
13386;SDS011;6763;48.524;9.044;2022-12-18T02:43:55;3.47;;;3.17;;
13386;SDS011;6763;48.524;9.044;2022-12-18T02:48:57;3.23;;;2.93;;
13386;SDS011;6763;48.524;9.044;2022-12-18T02:57:49;0.90;;;0.90;;
13386;SDS011;6763;48.524;9.044;2022-12-18T03:00:20;1.53;;;1.43;;
13386;SDS011;6763;48.524;9.044;2022-12-18T03:02:53;2.30;;;2.13;;
13386;SDS011;6763;48.524;9.044;2022-12-18T03:05:25;6.20;;;3.23;;
13386;SDS011;6763;48.524;9.044;2022-12-18T03:07:57;3.27;;;2.07;;
13386;SDS011;6763;48.524;9.044;2022-12-18T03:10:28;9.10;;;3.97;;
13386;SDS011;6763;48.524;9.044;2022-12-18T03:16:01;1.63;;;1.53;;
13386;SDS011;6763;48.524;9.044;2022-12-18T03:18:35;1.77;;;1.67;;
13386;SDS011;6763;48.524;9.044;2022-12-18T03:21:26;2.97;;;2.30;;
13386;SDS011;6763;48.524;9.044;2022-12-18T03:23:57;0.90;;;0.90;;
13386;SDS011;6763;48.524;9.044;2022-12-18T03:26:24;5.37;;;3.67;;
13386;SDS011;6763;48.524;9.044;2022-12-18T03:29:03;8.63;;;4.60;;
13386;SDS011;6763;48.524;9.044;2022-12-18T03:31:36;3.37;;;3.03;;
13386;SDS011;6763;48.524;9.044;2022-12-18T03:34:05;2.67;;;2.47;;
13386;SDS011;6763;48.524;9.044;2022-12-18T03:36:38;3.07;;;2.60;;
13386;SDS011;6763;48.524;9.044;2022-12-18T03:39:03;2.50;;;2.37;;
13386;SDS011;6763;48.524;9.044;2022-12-18T03:41:42;5.90;;;2.40;;
13386;SDS011;6763;48.524;9.044;2022-12-18T03:44:35;1.33;;;1.23;;
13386;SDS011;6763;48.524;9.044;2022-12-18T03:52:30;1.53;;;1.07;;
13386;SDS011;6763;48.524;9.044;2022-12-18T03:55:03;3.20;;;2.77;;
13386;SDS011;6763;48.524;9.044;2022-12-18T03:57:30;2.00;;;1.67;;
13386;SDS011;6763;48.524;9.044;2022-12-18T03:59:59;2.50;;;2.40;;
13386;SDS011;6763;48.524;9.044;2022-12-18T04:02:28;1.80;;;1.70;;
13386;SDS011;6763;48.524;9.044;2022-12-18T04:04:57;2.43;;;2.33;;
13386;SDS011;6763;48.524;9.044;2022-12-18T04:07:25;2.30;;;2.10;;
13386;SDS011;6763;48.524;9.044;2022-12-18T04:09:53;5.13;;;2.87;;
13386;SDS011;6763;48.524;9.044;2022-12-18T04:12:24;1.23;;;1.23;;
13386;SDS011;6763;48.524;9.044;2022-12-18T04:14:51;1.60;;;1.53;;
13386;SDS011;6763;48.524;9.044;2022-12-18T04:17:16;2.03;;;1.80;;
13386;SDS011;6763;48.524;9.044;2022-12-18T04:19:42;4.23;;;1.83;;
13386;SDS011;6763;48.524;9.044;2022-12-18T04:22:09;1.10;;;1.10;;
13386;SDS011;6763;48.524;9.044;2022-12-18T04:24:35;1.07;;;1.00;;
13386;SDS011;6763;48.524;9.044;2022-12-18T04:27:03;4.37;;;2.20;;
13386;SDS011;6763;48.524;9.044;2022-12-18T04:29:29;2.53;;;2.37;;
13386;SDS011;6763;48.524;9.044;2022-12-18T04:31:54;3.90;;;2.20;;
13386;SDS011;6763;48.524;9.044;2022-12-18T04:34:20;4.23;;;3.83;;
13386;SDS011;6763;48.524;9.044;2022-12-18T04:36:45;0.80;;;0.80;;
13386;SDS011;6763;48.524;9.044;2022-12-18T04:39:11;2.77;;;2.57;;
13386;SDS011;6763;48.524;9.044;2022-12-18T04:41:36;10.00;;;2.80;;
13386;SDS011;6763;48.524;9.044;2022-12-18T04:44:02;1.90;;;1.83;;
13386;SDS011;6763;48.524;9.044;2022-12-18T04:46:27;2.67;;;2.47;;
13386;SDS011;6763;48.524;9.044;2022-12-18T04:48:53;2.43;;;2.23;;
13386;SDS011;6763;48.524;9.044;2022-12-18T04:51:18;2.10;;;1.93;;
13386;SDS011;6763;48.524;9.044;2022-12-18T04:53:43;2.80;;;1.77;;
13386;SDS011;6763;48.524;9.044;2022-12-18T04:56:13;1.67;;;1.57;;
13386;SDS011;6763;48.524;9.044;2022-12-18T04:58:40;2.70;;;2.50;;
13386;SDS011;6763;48.524;9.044;2022-12-18T05:01:07;1.40;;;1.40;;
13386;SDS011;6763;48.524;9.044;2022-12-18T05:03:34;0.87;;;0.87;;
13386;SDS011;6763;48.524;9.044;2022-12-18T05:06:00;1.00;;;1.00;;
13386;SDS011;6763;48.524;9.044;2022-12-18T05:08:25;2.73;;;1.77;;
13386;SDS011;6763;48.524;9.044;2022-12-18T05:11:01;2.27;;;2.07;;
13386;SDS011;6763;48.524;9.044;2022-12-18T05:13:30;1.97;;;1.87;;
13386;SDS011;6763;48.524;9.044;2022-12-18T05:15:59;2.77;;;1.77;;
13386;SDS011;6763;48.524;9.044;2022-12-18T05:18:25;1.90;;;1.80;;
13386;SDS011;6763;48.524;9.044;2022-12-18T05:20:51;7.33;;;2.20;;
13386;SDS011;6763;48.524;9.044;2022-12-18T05:23:16;3.17;;;2.93;;
13386;SDS011;6763;48.524;9.044;2022-12-18T05:25:42;5.13;;;2.53;;
13386;SDS011;6763;48.524;9.044;2022-12-18T05:28:07;7.07;;;2.70;;
13386;SDS011;6763;48.524;9.044;2022-12-18T05:30:32;2.77;;;2.57;;
13386;SDS011;6763;48.524;9.044;2022-12-18T05:32:58;4.77;;;2.80;;
13386;SDS011;6763;48.524;9.044;2022-12-18T05:35:24;2.47;;;2.27;;
13386;SDS011;6763;48.524;9.044;2022-12-18T05:37:49;6.37;;;3.60;;
13386;SDS011;6763;48.524;9.044;2022-12-18T05:40:15;3.57;;;3.23;;
13386;SDS011;6763;48.524;9.044;2022-12-18T05:42:40;2.70;;;2.50;;
13386;SDS011;6763;48.524;9.044;2022-12-18T05:45:06;2.97;;;2.40;;
13386;SDS011;6763;48.524;9.044;2022-12-18T05:47:31;2.00;;;1.87;;
13386;SDS011;6763;48.524;9.044;2022-12-18T05:49:57;2.07;;;1.97;;
13386;SDS011;6763;48.524;9.044;2022-12-18T05:52:23;4.67;;;2.20;;
13386;SDS011;6763;48.524;9.044;2022-12-18T05:54:49;2.57;;;1.43;;
13386;SDS011;6763;48.524;9.044;2022-12-18T05:57:14;1.77;;;1.60;;
13386;SDS011;6763;48.524;9.044;2022-12-18T05:59:40;2.03;;;1.93;;
13386;SDS011;6763;48.524;9.044;2022-12-18T06:02:10;1.10;;;1.00;;
13386;SDS011;6763;48.524;9.044;2022-12-18T06:04:35;5.07;;;1.93;;
13386;SDS011;6763;48.524;9.044;2022-12-18T06:07:03;1.50;;;1.50;;
13386;SDS011;6763;48.524;9.044;2022-12-18T06:09:29;1.23;;;1.17;;
13386;SDS011;6763;48.524;9.044;2022-12-18T06:11:54;2.90;;;2.70;;
13386;SDS011;6763;48.524;9.044;2022-12-18T06:14:19;4.17;;;2.40;;
13386;SDS011;6763;48.524;9.044;2022-12-18T06:16:45;2.53;;;2.43;;
13386;SDS011;6763;48.524;9.044;2022-12-18T06:19:13;4.07;;;2.70;;
13386;SDS011;6763;48.524;9.044;2022-12-18T06:21:41;1.63;;;1.33;;
13386;SDS011;6763;48.524;9.044;2022-12-18T06:24:08;5.83;;;2.73;;
13386;SDS011;6763;48.524;9.044;2022-12-18T06:26:33;2.23;;;2.03;;
13386;SDS011;6763;48.524;9.044;2022-12-18T06:29:01;2.70;;;2.50;;
13386;SDS011;6763;48.524;9.044;2022-12-18T06:31:26;2.73;;;2.60;;
13386;SDS011;6763;48.524;9.044;2022-12-18T06:33:52;2.90;;;2.70;;
13386;SDS011;6763;48.524;9.044;2022-12-18T06:36:17;0.97;;;0.93;;
13386;SDS011;6763;48.524;9.044;2022-12-18T06:38:43;3.50;;;2.97;;
13386;SDS011;6763;48.524;9.044;2022-12-18T06:41:10;1.10;;;1.03;;
13386;SDS011;6763;48.524;9.044;2022-12-18T06:43:37;1.60;;;1.50;;
13386;SDS011;6763;48.524;9.044;2022-12-18T06:46:03;0.90;;;0.90;;
13386;SDS011;6763;48.524;9.044;2022-12-18T06:48:29;1.33;;;1.27;;
13386;SDS011;6763;48.524;9.044;2022-12-18T06:50:54;2.50;;;2.30;;
13386;SDS011;6763;48.524;9.044;2022-12-18T06:53:20;5.30;;;1.23;;
13386;SDS011;6763;48.524;9.044;2022-12-18T06:55:47;2.63;;;2.43;;
13386;SDS011;6763;48.524;9.044;2022-12-18T06:58:13;1.17;;;1.13;;
13386;SDS011;6763;48.524;9.044;2022-12-18T07:00:38;3.47;;;3.17;;
13386;SDS011;6763;48.524;9.044;2022-12-18T07:03:04;4.17;;;2.83;;
13386;SDS011;6763;48.524;9.044;2022-12-18T07:05:29;2.37;;;2.20;;
13386;SDS011;6763;48.524;9.044;2022-12-18T07:07:54;1.97;;;1.87;;
13386;SDS011;6763;48.524;9.044;2022-12-18T07:10:20;11.63;;;2.53;;
13386;SDS011;6763;48.524;9.044;2022-12-18T07:12:48;6.17;;;2.97;;
13386;SDS011;6763;48.524;9.044;2022-12-18T07:15:13;1.03;;;1.03;;
13386;SDS011;6763;48.524;9.044;2022-12-18T07:17:39;2.23;;;2.03;;
13386;SDS011;6763;48.524;9.044;2022-12-18T07:20:05;1.73;;;1.63;;
13386;SDS011;6763;48.524;9.044;2022-12-18T07:22:31;1.37;;;1.37;;
13386;SDS011;6763;48.524;9.044;2022-12-18T07:24:56;2.77;;;2.50;;
13386;SDS011;6763;48.524;9.044;2022-12-18T07:27:23;1.47;;;1.40;;
13386;SDS011;6763;48.524;9.044;2022-12-18T07:29:48;4.07;;;3.67;;
13386;SDS011;6763;48.524;9.044;2022-12-18T07:32:16;1.43;;;1.37;;
13386;SDS011;6763;48.524;9.044;2022-12-18T07:34:42;2.50;;;2.37;;
13386;SDS011;6763;48.524;9.044;2022-12-18T07:37:07;2.17;;;2.07;;
13386;SDS011;6763;48.524;9.044;2022-12-18T07:39:32;1.33;;;1.33;;
13386;SDS011;6763;48.524;9.044;2022-12-18T07:41:58;6.10;;;2.07;;
13386;SDS011;6763;48.524;9.044;2022-12-18T07:44:42;1.83;;;1.63;;
13386;SDS011;6763;48.524;9.044;2022-12-18T07:47:07;3.83;;;3.40;;
13386;SDS011;6763;48.524;9.044;2022-12-18T07:49:33;3.77;;;3.20;;
13386;SDS011;6763;48.524;9.044;2022-12-18T07:51:58;0.97;;;0.97;;
13386;SDS011;6763;48.524;9.044;2022-12-18T07:54:24;1.07;;;1.07;;
13386;SDS011;6763;48.524;9.044;2022-12-18T07:56:52;1.00;;;1.00;;
13386;SDS011;6763;48.524;9.044;2022-12-18T07:59:17;4.30;;;2.87;;
13386;SDS011;6763;48.524;9.044;2022-12-18T08:01:43;13.07;;;3.63;;
13386;SDS011;6763;48.524;9.044;2022-12-18T08:04:09;2.17;;;1.63;;
13386;SDS011;6763;48.524;9.044;2022-12-18T08:06:34;3.10;;;1.70;;
13386;SDS011;6763;48.524;9.044;2022-12-18T08:09:00;1.37;;;1.27;;
13386;SDS011;6763;48.524;9.044;2022-12-18T08:11:27;2.03;;;1.90;;
13386;SDS011;6763;48.524;9.044;2022-12-18T08:13:53;0.77;;;0.77;;
13386;SDS011;6763;48.524;9.044;2022-12-18T08:16:22;3.43;;;1.27;;
13386;SDS011;6763;48.524;9.044;2022-12-18T08:18:51;1.37;;;1.37;;
13386;SDS011;6763;48.524;9.044;2022-12-18T08:21:18;2.07;;;1.93;;
13386;SDS011;6763;48.524;9.044;2022-12-18T08:23:49;1.97;;;1.87;;
13386;SDS011;6763;48.524;9.044;2022-12-18T08:26:15;1.17;;;1.17;;
13386;SDS011;6763;48.524;9.044;2022-12-18T08:28:44;3.90;;;1.57;;
13386;SDS011;6763;48.524;9.044;2022-12-18T08:31:12;4.23;;;3.83;;
13386;SDS011;6763;48.524;9.044;2022-12-18T08:33:41;1.73;;;1.63;;
13386;SDS011;6763;48.524;9.044;2022-12-18T08:36:07;4.20;;;3.23;;
13386;SDS011;6763;48.524;9.044;2022-12-18T08:38:33;1.77;;;1.67;;
13386;SDS011;6763;48.524;9.044;2022-12-18T08:43:25;2.13;;;1.73;;
13386;SDS011;6763;48.524;9.044;2022-12-18T08:46:11;2.00;;;1.90;;
13386;SDS011;6763;48.524;9.044;2022-12-18T08:48:40;3.37;;;3.00;;
13386;SDS011;6763;48.524;9.044;2022-12-18T08:51:11;3.67;;;2.47;;
13386;SDS011;6763;48.524;9.044;2022-12-18T08:53:37;2.07;;;1.57;;
13386;SDS011;6763;48.524;9.044;2022-12-18T08:56:03;3.80;;;3.37;;
13386;SDS011;6763;48.524;9.044;2022-12-18T08:58:29;4.20;;;1.40;;
13386;SDS011;6763;48.524;9.044;2022-12-18T09:01:01;0.93;;;0.93;;
13386;SDS011;6763;48.524;9.044;2022-12-18T09:03:27;3.37;;;1.10;;
13386;SDS011;6763;48.524;9.044;2022-12-18T09:05:55;2.00;;;1.83;;
13386;SDS011;6763;48.524;9.044;2022-12-18T09:08:21;1.47;;;1.43;;
13386;SDS011;6763;48.524;9.044;2022-12-18T09:10:48;3.87;;;3.33;;
13386;SDS011;6763;48.524;9.044;2022-12-18T09:13:17;4.97;;;1.60;;
13386;SDS011;6763;48.524;9.044;2022-12-18T09:15:47;1.87;;;1.77;;
13386;SDS011;6763;48.524;9.044;2022-12-18T09:18:15;1.07;;;1.07;;
13386;SDS011;6763;48.524;9.044;2022-12-18T09:20:41;1.10;;;1.10;;
13386;SDS011;6763;48.524;9.044;2022-12-18T09:23:07;3.00;;;2.60;;
13386;SDS011;6763;48.524;9.044;2022-12-18T09:25:34;6.70;;;3.63;;
13386;SDS011;6763;48.524;9.044;2022-12-18T09:28:04;3.20;;;1.57;;
13386;SDS011;6763;48.524;9.044;2022-12-18T09:30:52;8.93;;;2.57;;
13386;SDS011;6763;48.524;9.044;2022-12-18T09:33:17;4.33;;;2.27;;
13386;SDS011;6763;48.524;9.044;2022-12-18T09:35:44;3.33;;;2.70;;
13386;SDS011;6763;48.524;9.044;2022-12-18T09:38:14;4.40;;;3.43;;
13386;SDS011;6763;48.524;9.044;2022-12-18T09:40:52;4.27;;;3.37;;
13386;SDS011;6763;48.524;9.044;2022-12-18T09:43:26;1.67;;;1.53;;
13386;SDS011;6763;48.524;9.044;2022-12-18T09:46:03;2.00;;;1.77;;
13386;SDS011;6763;48.524;9.044;2022-12-18T09:48:36;1.67;;;1.57;;
13386;SDS011;6763;48.524;9.044;2022-12-18T09:51:08;1.63;;;1.57;;
13386;SDS011;6763;48.524;9.044;2022-12-18T09:53:39;4.20;;;3.80;;
13386;SDS011;6763;48.524;9.044;2022-12-18T09:56:12;3.87;;;2.37;;
13386;SDS011;6763;48.524;9.044;2022-12-18T09:59:02;4.57;;;4.17;;
13386;SDS011;6763;48.524;9.044;2022-12-18T10:01:32;1.73;;;1.63;;
13386;SDS011;6763;48.524;9.044;2022-12-18T10:03:58;4.37;;;3.73;;
13386;SDS011;6763;48.524;9.044;2022-12-18T10:11:48;4.23;;;3.63;;
13386;SDS011;6763;48.524;9.044;2022-12-18T10:19:47;2.77;;;2.57;;
13386;SDS011;6763;48.524;9.044;2022-12-18T10:24:59;4.30;;;2.83;;
13386;SDS011;6763;48.524;9.044;2022-12-18T10:27:44;3.83;;;2.80;;
13386;SDS011;6763;48.524;9.044;2022-12-18T10:30:18;4.17;;;3.77;;
13386;SDS011;6763;48.524;9.044;2022-12-18T10:32:45;4.63;;;3.07;;
13386;SDS011;6763;48.524;9.044;2022-12-18T10:35:19;4.17;;;3.83;;
13386;SDS011;6763;48.524;9.044;2022-12-18T10:43:36;4.87;;;4.40;;
13386;SDS011;6763;48.524;9.044;2022-12-18T10:48:47;3.73;;;2.83;;
13386;SDS011;6763;48.524;9.044;2022-12-18T10:53:56;4.10;;;3.77;;
13386;SDS011;6763;48.524;9.044;2022-12-18T10:56:25;3.27;;;3.07;;
13386;SDS011;6763;48.524;9.044;2022-12-18T10:59:05;4.47;;;3.87;;
13386;SDS011;6763;48.524;9.044;2022-12-18T11:01:51;4.97;;;4.40;;
13386;SDS011;6763;48.524;9.044;2022-12-18T11:04:25;8.53;;;3.83;;
13386;SDS011;6763;48.524;9.044;2022-12-18T11:09:36;5.13;;;4.70;;
13386;SDS011;6763;48.524;9.044;2022-12-18T11:12:14;3.60;;;2.97;;
13386;SDS011;6763;48.524;9.044;2022-12-18T11:14:46;12.70;;;5.07;;
13386;SDS011;6763;48.524;9.044;2022-12-18T11:17:29;11.20;;;6.70;;
13386;SDS011;6763;48.524;9.044;2022-12-18T11:20:07;8.97;;;4.47;;
13386;SDS011;6763;48.524;9.044;2022-12-18T11:22:53;5.30;;;3.15;;
13386;SDS011;6763;48.524;9.044;2022-12-18T11:25:23;7.93;;;4.28;;
13386;SDS011;6763;48.524;9.044;2022-12-18T11:27:51;9.52;;;4.97;;
13386;SDS011;6763;48.524;9.044;2022-12-18T11:30:21;11.15;;;4.90;;
13386;SDS011;6763;48.524;9.044;2022-12-18T11:38:04;12.20;;;6.75;;
13386;SDS011;6763;48.524;9.044;2022-12-18T11:40:38;13.73;;;7.93;;
13386;SDS011;6763;48.524;9.044;2022-12-18T11:43:10;9.85;;;5.82;;
13386;SDS011;6763;48.524;9.044;2022-12-18T11:45:52;10.23;;;6.03;;
13386;SDS011;6763;48.524;9.044;2022-12-18T11:48:22;9.40;;;7.45;;
13386;SDS011;6763;48.524;9.044;2022-12-18T11:50:56;14.90;;;7.85;;
13386;SDS011;6763;48.524;9.044;2022-12-18T11:53:24;14.43;;;8.48;;
13386;SDS011;6763;48.524;9.044;2022-12-18T11:55:56;14.80;;;8.48;;
13386;SDS011;6763;48.524;9.044;2022-12-18T11:58:28;11.43;;;6.35;;
13386;SDS011;6763;48.524;9.044;2022-12-18T12:01:03;14.48;;;9.07;;
13386;SDS011;6763;48.524;9.044;2022-12-18T12:17:38;14.95;;;8.25;;
13386;SDS011;6763;48.524;9.044;2022-12-18T12:20:36;12.32;;;6.03;;
13386;SDS011;6763;48.524;9.044;2022-12-18T12:23:25;12.00;;;7.82;;
13386;SDS011;6763;48.524;9.044;2022-12-18T12:26:06;7.43;;;4.95;;
13386;SDS011;6763;48.524;9.044;2022-12-18T12:28:38;8.75;;;5.72;;
13386;SDS011;6763;48.524;9.044;2022-12-18T12:39:42;7.33;;;5.47;;
13386;SDS011;6763;48.524;9.044;2022-12-18T12:42:14;9.37;;;5.23;;
13386;SDS011;6763;48.524;9.044;2022-12-18T12:45:04;8.30;;;6.50;;
13386;SDS011;6763;48.524;9.044;2022-12-18T12:47:33;12.10;;;7.47;;
13386;SDS011;6763;48.524;9.044;2022-12-18T12:50:05;11.07;;;6.97;;
13386;SDS011;6763;48.524;9.044;2022-12-18T12:52:41;11.67;;;6.47;;
13386;SDS011;6763;48.524;9.044;2022-12-18T12:55:14;8.53;;;6.10;;
13386;SDS011;6763;48.524;9.044;2022-12-18T12:57:46;10.50;;;4.27;;
13386;SDS011;6763;48.524;9.044;2022-12-18T13:00:25;9.20;;;6.27;;
13386;SDS011;6763;48.524;9.044;2022-12-18T13:05:43;6.60;;;5.23;;
13386;SDS011;6763;48.524;9.044;2022-12-18T13:08:32;7.20;;;5.73;;
13386;SDS011;6763;48.524;9.044;2022-12-18T13:11:34;9.43;;;4.37;;
13386;SDS011;6763;48.524;9.044;2022-12-18T13:14:33;10.80;;;5.47;;
13386;SDS011;6763;48.524;9.044;2022-12-18T13:19:52;11.00;;;7.50;;
13386;SDS011;6763;48.524;9.044;2022-12-18T13:22:46;7.07;;;5.03;;
13386;SDS011;6763;48.524;9.044;2022-12-18T13:25:29;8.70;;;4.70;;
13386;SDS011;6763;48.524;9.044;2022-12-18T13:28:01;7.87;;;5.07;;
13386;SDS011;6763;48.524;9.044;2022-12-18T13:38:22;11.13;;;4.80;;
13386;SDS011;6763;48.524;9.044;2022-12-18T13:40:54;7.80;;;5.13;;
13386;SDS011;6763;48.524;9.044;2022-12-18T13:45:58;12.67;;;7.13;;
13386;SDS011;6763;48.524;9.044;2022-12-18T13:48:25;10.33;;;6.03;;
13386;SDS011;6763;48.524;9.044;2022-12-18T13:50:55;11.33;;;5.60;;
13386;SDS011;6763;48.524;9.044;2022-12-18T13:53:33;7.90;;;5.77;;
13386;SDS011;6763;48.524;9.044;2022-12-18T13:56:03;16.10;;;6.93;;
13386;SDS011;6763;48.524;9.044;2022-12-18T13:58:30;18.07;;;6.60;;
13386;SDS011;6763;48.524;9.044;2022-12-18T14:00:58;5.47;;;4.97;;
13386;SDS011;6763;48.524;9.044;2022-12-18T14:03:25;20.23;;;8.10;;
13386;SDS011;6763;48.524;9.044;2022-12-18T14:06:03;12.03;;;5.70;;
13386;SDS011;6763;48.524;9.044;2022-12-18T14:08:34;9.83;;;6.60;;
13386;SDS011;6763;48.524;9.044;2022-12-18T14:11:04;7.50;;;4.70;;
13386;SDS011;6763;48.524;9.044;2022-12-18T14:13:36;12.00;;;6.00;;
13386;SDS011;6763;48.524;9.044;2022-12-18T14:16:06;8.83;;;5.80;;
13386;SDS011;6763;48.524;9.044;2022-12-18T14:18:38;7.37;;;6.47;;
13386;SDS011;6763;48.524;9.044;2022-12-18T14:21:15;8.60;;;6.30;;
13386;SDS011;6763;48.524;9.044;2022-12-18T14:23:44;12.60;;;7.40;;
13386;SDS011;6763;48.524;9.044;2022-12-18T14:28:48;8.63;;;6.60;;
13386;SDS011;6763;48.524;9.044;2022-12-18T14:31:17;13.07;;;7.57;;
13386;SDS011;6763;48.524;9.044;2022-12-18T14:33:48;7.30;;;5.93;;
13386;SDS011;6763;48.524;9.044;2022-12-18T14:36:15;10.63;;;6.07;;
13386;SDS011;6763;48.524;9.044;2022-12-18T14:39:04;4.90;;;4.50;;
13386;SDS011;6763;48.524;9.044;2022-12-18T14:41:32;6.57;;;5.73;;
13386;SDS011;6763;48.524;9.044;2022-12-18T14:44:04;6.80;;;5.67;;
13386;SDS011;6763;48.524;9.044;2022-12-18T14:46:38;11.50;;;7.83;;
13386;SDS011;6763;48.524;9.044;2022-12-18T14:52:05;10.97;;;5.97;;
13386;SDS011;6763;48.524;9.044;2022-12-18T14:54:45;9.63;;;6.03;;
13386;SDS011;6763;48.524;9.044;2022-12-18T14:57:20;9.97;;;6.23;;
13386;SDS011;6763;48.524;9.044;2022-12-18T14:59:51;10.53;;;6.60;;
13386;SDS011;6763;48.524;9.044;2022-12-18T15:02:21;8.03;;;5.50;;
13386;SDS011;6763;48.524;9.044;2022-12-18T15:04:59;7.03;;;6.37;;
13386;SDS011;6763;48.524;9.044;2022-12-18T15:07:26;8.50;;;6.67;;
13386;SDS011;6763;48.524;9.044;2022-12-18T15:10:11;9.60;;;5.60;;
13386;SDS011;6763;48.524;9.044;2022-12-18T15:12:39;4.33;;;3.90;;
13386;SDS011;6763;48.524;9.044;2022-12-18T15:15:41;8.27;;;5.73;;
13386;SDS011;6763;48.524;9.044;2022-12-18T15:18:12;6.47;;;5.40;;
13386;SDS011;6763;48.524;9.044;2022-12-18T15:23:46;4.73;;;3.97;;
13386;SDS011;6763;48.524;9.044;2022-12-18T15:26:16;3.70;;;3.47;;
13386;SDS011;6763;48.524;9.044;2022-12-18T15:28:52;9.20;;;5.73;;
13386;SDS011;6763;48.524;9.044;2022-12-18T15:36:24;13.17;;;7.67;;
13386;SDS011;6763;48.524;9.044;2022-12-18T15:38:50;10.53;;;9.37;;
13386;SDS011;6763;48.524;9.044;2022-12-18T15:41:19;11.03;;;7.87;;
13386;SDS011;6763;48.524;9.044;2022-12-18T15:43:46;11.83;;;6.80;;
13386;SDS011;6763;48.524;9.044;2022-12-18T15:46:17;17.47;;;7.37;;
13386;SDS011;6763;48.524;9.044;2022-12-18T15:48:44;8.00;;;6.33;;
13386;SDS011;6763;48.524;9.044;2022-12-18T15:51:13;4.17;;;3.77;;
13386;SDS011;6763;48.524;9.044;2022-12-18T15:53:42;5.53;;;4.60;;
13386;SDS011;6763;48.524;9.044;2022-12-18T15:56:11;9.63;;;5.87;;
13386;SDS011;6763;48.524;9.044;2022-12-18T15:58:56;7.40;;;5.40;;
13386;SDS011;6763;48.524;9.044;2022-12-18T16:01:23;6.13;;;4.30;;
13386;SDS011;6763;48.524;9.044;2022-12-18T16:03:50;4.77;;;3.87;;
13386;SDS011;6763;48.524;9.044;2022-12-18T16:06:16;7.17;;;3.13;;
13386;SDS011;6763;48.524;9.044;2022-12-18T16:08:41;6.77;;;3.93;;
13386;SDS011;6763;48.524;9.044;2022-12-18T16:11:20;3.47;;;3.03;;
13386;SDS011;6763;48.524;9.044;2022-12-18T16:16:49;4.80;;;3.13;;
13386;SDS011;6763;48.524;9.044;2022-12-18T16:19:19;3.60;;;3.40;;
13386;SDS011;6763;48.524;9.044;2022-12-18T16:21:46;3.10;;;2.83;;
13386;SDS011;6763;48.524;9.044;2022-12-18T16:24:32;3.70;;;3.40;;
13386;SDS011;6763;48.524;9.044;2022-12-18T16:26:59;7.83;;;3.33;;
13386;SDS011;6763;48.524;9.044;2022-12-18T16:29:25;5.80;;;3.90;;
13386;SDS011;6763;48.524;9.044;2022-12-18T16:31:52;4.50;;;2.87;;
13386;SDS011;6763;48.524;9.044;2022-12-18T16:34:25;11.30;;;4.00;;
13386;SDS011;6763;48.524;9.044;2022-12-18T16:36:59;5.97;;;5.27;;
13386;SDS011;6763;48.524;9.044;2022-12-18T16:39:27;4.87;;;4.30;;
13386;SDS011;6763;48.524;9.044;2022-12-18T16:41:52;14.90;;;6.00;;
13386;SDS011;6763;48.524;9.044;2022-12-18T16:44:18;13.23;;;5.83;;
13386;SDS011;6763;48.524;9.044;2022-12-18T16:46:44;4.53;;;3.90;;
13386;SDS011;6763;48.524;9.044;2022-12-18T16:49:12;4.80;;;4.17;;
13386;SDS011;6763;48.524;9.044;2022-12-18T16:51:39;8.93;;;5.73;;
13386;SDS011;6763;48.524;9.044;2022-12-18T16:54:04;6.00;;;4.00;;
13386;SDS011;6763;48.524;9.044;2022-12-18T16:56:30;6.33;;;3.53;;
13386;SDS011;6763;48.524;9.044;2022-12-18T16:58:57;10.83;;;5.73;;
13386;SDS011;6763;48.524;9.044;2022-12-18T17:01:25;9.90;;;5.83;;
13386;SDS011;6763;48.524;9.044;2022-12-18T17:04:02;4.73;;;4.30;;
13386;SDS011;6763;48.524;9.044;2022-12-18T17:06:30;5.93;;;4.97;;
13386;SDS011;6763;48.524;9.044;2022-12-18T17:08:58;3.73;;;3.43;;
13386;SDS011;6763;48.524;9.044;2022-12-18T17:11:26;10.90;;;5.20;;
13386;SDS011;6763;48.524;9.044;2022-12-18T17:13:53;7.47;;;4.77;;